createdAt,value
2019-04-22T00:00:57.686Z,10.07
2019-04-22T00:03:39.004Z,11.60
2019-04-22T00:10:13.388Z,10.70
2019-04-22T00:12:53.117Z,9.80
2019-04-22T00:15:27.369Z,12.60
2019-04-22T00:18:14.444Z,9.60
2019-04-22T00:21:04.823Z,13.00
2019-04-22T00:23:43.398Z,10.40
2019-04-22T00:35:06.084Z,10.33
2019-04-22T00:38:03.793Z,10.73
2019-04-22T00:41:08.203Z,11.97
2019-04-22T00:43:37.520Z,9.27
2019-04-22T00:46:14.336Z,12.80
2019-04-22T00:49:33.153Z,11.60
2019-04-22T00:51:22.532Z,10.07
2019-04-22T00:54:13.672Z,12.60
2019-04-22T00:57:12.320Z,9.13
2019-04-22T00:59:33.008Z,10.40
2019-04-22T01:02:13.157Z,10.20
2019-04-22T01:05:00.744Z,13.67
2019-04-22T01:08:01.165Z,12.80
2019-04-22T01:10:39.005Z,13.20
2019-04-22T01:13:04.898Z,11.97
2019-04-22T01:18:37.429Z,12.27
2019-04-22T01:21:29.872Z,11.37
2019-04-22T01:24:22.125Z,11.87
2019-04-22T01:26:49.011Z,10.90
2019-04-22T01:32:43.032Z,10.90
2019-04-22T01:39:07.071Z,10.83
2019-04-22T01:41:42.516Z,11.47
2019-04-22T01:44:35.760Z,11.90
2019-04-22T01:50:37.060Z,12.40
2019-04-22T01:53:19.351Z,10.20
2019-04-22T01:56:28.837Z,11.57
2019-04-22T01:58:59.420Z,10.33
2019-04-22T02:01:55.108Z,12.73
2019-04-22T02:04:38.601Z,15.30
2019-04-22T02:07:16.734Z,12.10
2019-04-22T02:09:56.039Z,11.43
2019-04-22T02:12:43.466Z,11.77
2019-04-22T02:15:23.511Z,10.90
2019-04-22T02:17:54.874Z,11.70
2019-04-22T02:20:35.918Z,12.00
2019-04-22T02:26:27.272Z,10.73
2019-04-22T02:28:55.085Z,11.27
2019-04-22T02:31:51.119Z,11.63
2019-04-22T02:41:16.073Z,12.13
2019-04-22T02:47:07.869Z,11.17
2019-04-22T02:52:14.962Z,13.50
2019-04-22T02:57:47.409Z,10.93
2019-04-22T03:04:01.624Z,12.17
2019-04-22T03:09:07.269Z,11.17
2019-04-22T03:14:22.685Z,11.50
2019-04-22T03:19:57.585Z,14.33
2019-04-22T03:22:34.551Z,10.13
2019-04-22T03:28:10.245Z,11.17
2019-04-22T03:30:47.385Z,13.17
2019-04-22T03:40:07.321Z,13.30
2019-04-22T03:54:36.889Z,10.47
2019-04-22T03:57:22.051Z,11.37
2019-04-22T03:59:54.082Z,10.30
2019-04-22T04:02:21.614Z,12.17
2019-04-22T04:04:52.397Z,12.53
2019-04-22T04:07:42.598Z,11.77
2019-04-22T04:10:30.097Z,11.93
2019-04-22T04:13:03.347Z,11.40
2019-04-22T04:15:53.583Z,13.10
2019-04-22T04:18:22.245Z,10.80
2019-04-22T04:26:37.378Z,11.50
2019-04-22T04:40:11.660Z,16.03
2019-04-22T04:48:01.044Z,13.10
2019-04-22T04:51:12.159Z,11.83
2019-04-22T04:53:41.407Z,13.17
2019-04-22T04:59:16.952Z,13.60
2019-04-22T05:01:41.577Z,9.97
2019-04-22T05:04:41.363Z,13.27
2019-04-22T05:07:27.086Z,12.10
2019-04-22T05:09:46.254Z,10.50
2019-04-22T05:18:06.199Z,11.30
2019-04-22T05:21:02.925Z,10.93
2019-04-22T05:23:37.230Z,10.63
2019-04-22T05:26:26.082Z,12.10
2019-04-22T05:29:17.038Z,10.90
2019-04-22T05:31:52.176Z,12.03
2019-04-22T05:37:50.645Z,10.10
2019-04-22T05:40:30.728Z,9.97
2019-04-22T05:43:00.368Z,9.10
2019-04-22T05:45:57.885Z,11.70
2019-04-22T05:48:46.671Z,9.83
2019-04-22T05:57:57.685Z,12.20
2019-04-22T06:06:37.132Z,9.20
2019-04-22T06:09:24.879Z,9.10
2019-04-22T06:12:28.294Z,9.90
2019-04-22T06:15:22.327Z,10.30
2019-04-22T06:24:08.282Z,8.10
2019-04-22T06:27:08.093Z,11.20
2019-04-22T06:29:43.134Z,8.00
2019-04-22T06:32:42.112Z,9.87
2019-04-22T06:39:19.062Z,8.70
2019-04-22T06:42:00.767Z,11.00
2019-04-22T06:47:00.608Z,11.90
2019-04-22T06:49:49.486Z,11.27
2019-04-22T06:52:49.114Z,11.93
2019-04-22T06:55:05.253Z,10.40
2019-04-22T06:57:41.707Z,11.10
2019-04-22T07:00:24.437Z,14.03
2019-04-22T07:03:33.395Z,12.00
2019-04-22T07:05:46.330Z,13.53
2019-04-22T07:09:06.668Z,10.10
2019-04-22T07:13:55.299Z,11.47
2019-04-22T07:19:58.399Z,13.30
2019-04-22T07:22:43.317Z,13.37
2019-04-22T07:24:58.905Z,12.60
2019-04-22T07:27:53.833Z,13.30
2019-04-22T07:30:33.610Z,14.97
2019-04-22T07:39:05.723Z,16.10
2019-04-22T07:41:58.605Z,14.27
2019-04-22T07:44:45.179Z,16.07
2019-04-22T07:50:15.305Z,14.40
2019-04-22T07:58:58.330Z,14.77
2019-04-22T08:05:20.651Z,12.93
2019-04-22T08:07:49.243Z,11.73
2019-04-22T08:10:40.306Z,12.10
2019-04-22T08:13:22.984Z,12.17
2019-04-22T08:16:16.401Z,11.63
2019-04-22T08:19:04.125Z,12.53
2019-04-22T08:21:49.051Z,16.07
2019-04-22T08:24:22.658Z,13.40
2019-04-22T08:26:53.235Z,10.90
2019-04-22T08:32:58.898Z,13.20
2019-04-22T08:35:52.430Z,12.60
2019-04-22T08:38:24.131Z,14.63
2019-04-22T08:41:06.853Z,12.70
2019-04-22T08:44:02.569Z,11.97
2019-04-22T08:49:57.175Z,12.30
2019-04-22T08:54:51.318Z,10.87
2019-04-22T09:00:51.847Z,11.00
2019-04-22T09:03:34.238Z,9.57
2019-04-22T09:15:16.577Z,12.57
2019-04-22T09:18:12.816Z,12.97
2019-04-22T09:21:04.722Z,10.80
2019-04-22T09:26:22.873Z,11.27
2019-04-22T09:28:59.906Z,10.37
2019-04-22T09:31:53.639Z,11.17
2019-04-22T09:34:23.535Z,10.20
2019-04-22T09:37:01.536Z,9.83
2019-04-22T09:39:55.354Z,12.63
2019-04-22T09:42:39.154Z,7.80
2019-04-22T09:48:34.740Z,8.90
2019-04-22T09:51:05.886Z,8.97
2019-04-22T09:53:54.176Z,9.60
2019-04-22T10:02:55.376Z,10.77
2019-04-22T10:05:35.736Z,11.83
2019-04-22T10:08:03.142Z,8.33
2019-04-22T10:10:56.587Z,7.50
2019-04-22T10:13:37.376Z,8.57
2019-04-22T10:16:08.919Z,9.77
2019-04-22T10:18:38.944Z,7.80
2019-04-22T10:21:19.063Z,7.43
2019-04-22T10:24:03.446Z,7.13
2019-04-22T10:29:10.743Z,7.53
2019-04-22T10:35:19.094Z,5.57
2019-04-22T10:38:10.342Z,6.27
2019-04-22T10:40:58.583Z,5.57
2019-04-22T10:43:25.326Z,5.90
2019-04-22T10:45:59.792Z,7.37
2019-04-22T10:52:02.688Z,4.87
2019-04-22T10:54:43.261Z,4.90
2019-04-22T10:57:22.912Z,4.83
2019-04-22T11:02:48.184Z,7.17
2019-04-22T11:06:01.261Z,5.67
2019-04-22T11:08:52.813Z,4.37
2019-04-22T11:13:56.114Z,6.07
2019-04-22T11:16:43.512Z,5.50
2019-04-22T11:22:30.032Z,5.03
2019-04-22T11:25:26.137Z,4.67
2019-04-22T11:27:53.580Z,3.90
2019-04-22T11:31:06.202Z,7.97
2019-04-22T11:33:45.347Z,4.47
2019-04-22T11:36:11.390Z,5.40
2019-04-22T11:41:49.968Z,4.70
2019-04-22T11:44:37.158Z,7.30
2019-04-22T11:47:17.197Z,6.50
2019-04-22T11:49:43.889Z,4.90
2019-04-22T11:52:22.557Z,4.70
2019-04-22T11:55:08.961Z,5.57
2019-04-22T11:57:47.946Z,4.53
2019-04-22T12:00:36.963Z,4.10
2019-04-22T12:06:45.850Z,4.60
2019-04-22T12:09:53.359Z,3.87
2019-04-22T12:12:34.538Z,3.90
2019-04-22T12:15:15.091Z,3.53
2019-04-22T12:17:55.276Z,4.97
2019-04-22T12:20:35.057Z,3.63
2019-04-22T12:26:48.296Z,4.77
2019-04-22T12:32:25.507Z,3.30
2019-04-22T12:38:33.432Z,2.93
2019-04-22T12:44:24.458Z,3.83
2019-04-22T12:56:25.830Z,3.33
2019-04-22T12:58:59.516Z,3.57
2019-04-22T13:01:39.242Z,6.97
2019-04-22T13:10:05.968Z,4.13
2019-04-22T13:16:10.941Z,5.60
2019-04-22T13:18:43.409Z,5.10
2019-04-22T13:21:10.927Z,5.23
2019-04-22T13:23:57.148Z,6.30
2019-04-22T13:26:38.105Z,4.70
2019-04-22T13:29:19.258Z,3.90
2019-04-22T13:34:46.510Z,4.47
2019-04-22T13:37:23.235Z,5.03
2019-04-22T13:39:49.364Z,4.00
2019-04-22T13:42:19.385Z,4.10
2019-04-22T13:44:49.808Z,4.83
2019-04-22T13:47:30.486Z,4.50
2019-04-22T13:56:10.593Z,5.40
2019-04-22T13:58:24.359Z,7.50
2019-04-22T14:01:36.572Z,7.93
2019-04-22T14:07:16.930Z,5.23
2019-04-22T14:09:56.424Z,6.87
2019-04-22T14:13:00.203Z,7.90
2019-04-22T14:15:27.772Z,5.90
2019-04-22T14:18:21.277Z,7.00
2019-04-22T14:21:01.150Z,8.03
2019-04-22T14:23:28.393Z,7.87
2019-04-22T14:26:01.532Z,5.33
2019-04-22T14:28:29.258Z,7.50
2019-04-22T14:31:02.372Z,5.80
2019-04-22T14:33:54.753Z,6.83
2019-04-22T14:36:30.155Z,7.10
2019-04-22T14:39:30.356Z,7.37
2019-04-22T14:42:28.372Z,5.13
2019-04-22T14:48:01.140Z,5.23
2019-04-22T14:50:37.590Z,7.60
2019-04-22T14:56:06.545Z,5.10
2019-04-22T14:58:40.561Z,6.43
2019-04-22T15:04:11.441Z,6.50
2019-04-22T15:06:59.001Z,5.13
2019-04-22T15:09:32.503Z,6.83
2019-04-22T15:12:30.006Z,5.13
2019-04-22T15:18:33.716Z,5.40
2019-04-22T15:21:14.753Z,6.10
2019-04-22T15:27:14.162Z,5.67
2019-04-22T15:33:49.839Z,6.20
2019-04-22T15:36:28.309Z,7.77
2019-04-22T15:42:09.526Z,6.00
2019-04-22T15:44:37.669Z,7.27
2019-04-22T15:47:13.066Z,6.70
2019-04-22T15:53:31.558Z,7.10
2019-04-22T16:01:28.870Z,5.40
2019-04-22T16:03:58.896Z,6.33
2019-04-22T16:09:13.249Z,6.33
2019-04-22T16:12:16.329Z,5.63
2019-04-22T16:14:47.365Z,6.50
2019-04-22T16:17:16.749Z,6.90
2019-04-22T16:20:23.320Z,7.17
2019-04-22T16:28:57.624Z,6.40
2019-04-22T16:31:29.373Z,6.70
2019-04-22T16:34:03.005Z,6.07
2019-04-22T16:36:29.329Z,7.13
2019-04-22T16:38:57.008Z,6.13
2019-04-22T16:41:24.433Z,5.90
2019-04-22T16:43:50.817Z,5.93
2019-04-22T16:46:16.916Z,5.97
2019-04-22T16:48:43.390Z,7.83
2019-04-22T16:51:09.941Z,5.93
2019-04-22T16:53:37.079Z,5.40
2019-04-22T16:56:04.803Z,5.80
2019-04-22T16:58:30.901Z,7.50
2019-04-22T17:00:58.602Z,5.93
2019-04-22T17:03:26.913Z,5.90
2019-04-22T17:06:11.793Z,8.60
2019-04-22T17:08:39.013Z,8.20
2019-04-22T17:11:05.335Z,6.37
2019-04-22T17:13:33.980Z,6.77
2019-04-22T17:16:01.947Z,7.90
2019-04-22T17:18:27.393Z,6.67
2019-04-22T17:20:54.890Z,6.73
2019-04-22T17:23:21.039Z,6.80
2019-04-22T17:25:48.314Z,7.50
2019-04-22T17:28:15.391Z,7.87
2019-04-22T17:30:41.581Z,8.43
2019-04-22T17:33:08.431Z,6.73
2019-04-22T17:35:36.021Z,6.97
2019-04-22T17:38:14.251Z,6.60
2019-04-22T17:40:49.109Z,7.13
2019-04-22T17:43:30.049Z,10.17
2019-04-22T17:45:58.428Z,9.93
2019-04-22T17:48:35.718Z,6.63
2019-04-22T17:51:16.137Z,7.40
2019-04-22T17:57:19.290Z,10.70
2019-04-22T17:59:55.275Z,9.53
2019-04-22T18:05:04.221Z,7.00
2019-04-22T18:08:05.528Z,7.27
2019-04-22T18:11:18.178Z,6.70
2019-04-22T18:14:16.797Z,8.03
2019-04-22T18:16:47.625Z,7.40
2019-04-22T18:19:16.717Z,7.90
2019-04-22T18:21:46.199Z,11.13
2019-04-22T18:27:30.492Z,11.20
2019-04-22T18:30:16.637Z,10.77
2019-04-22T18:33:24.341Z,7.07
2019-04-22T18:39:20.843Z,8.47
2019-04-22T18:41:48.216Z,8.23
2019-04-22T18:44:22.864Z,8.30
2019-04-22T18:46:54.986Z,7.40
2019-04-22T18:49:43.447Z,11.13
2019-04-22T18:55:33.838Z,9.07
2019-04-22T18:58:24.897Z,9.60
2019-04-22T19:03:55.203Z,7.73
2019-04-22T19:09:37.649Z,8.80
2019-04-22T19:12:11.765Z,8.80
2019-04-22T19:15:08.243Z,8.67
2019-04-22T19:18:00.011Z,6.90
2019-04-22T19:20:31.484Z,11.23
2019-04-22T19:22:57.132Z,8.87
2019-04-22T19:25:37.057Z,8.23
2019-04-22T19:28:17.914Z,9.10
2019-04-22T19:31:02.810Z,9.13
2019-04-22T19:33:40.606Z,12.03
2019-04-22T19:36:20.519Z,10.70
2019-04-22T19:38:59.117Z,11.13
2019-04-22T19:41:59.180Z,10.17
2019-04-22T19:44:43.775Z,10.17
2019-04-22T19:47:24.026Z,12.87
2019-04-22T19:50:11.752Z,41.43
2019-04-22T19:52:44.581Z,9.63
2019-04-22T19:55:59.938Z,11.00
2019-04-22T20:07:51.008Z,8.47
2019-04-22T20:10:51.166Z,10.60
2019-04-22T20:19:45.614Z,7.90
2019-04-22T20:22:32.706Z,8.30
2019-04-22T20:25:12.356Z,10.63
2019-04-22T20:31:33.948Z,9.33
2019-04-22T20:37:28.325Z,9.60
2019-04-22T20:43:43.222Z,8.40
2019-04-22T20:46:31.625Z,7.80
2019-04-22T20:49:00.168Z,8.90
2019-04-22T20:52:11.461Z,8.80
2019-04-22T20:54:35.907Z,11.70
2019-04-22T20:57:01.039Z,12.70
2019-04-22T21:02:36.217Z,10.30
2019-04-22T21:05:34.532Z,8.17
2019-04-22T21:08:33.443Z,8.87
2019-04-22T21:10:49.368Z,11.20
2019-04-22T21:13:50.450Z,11.33
2019-04-22T21:16:40.053Z,7.73
2019-04-22T21:19:04.431Z,9.40
2019-04-22T21:22:03.576Z,8.77
2019-04-22T21:24:49.214Z,10.50
2019-04-22T21:27:35.373Z,9.47
2019-04-22T21:30:14.438Z,9.23
2019-04-22T21:32:53.540Z,7.23
2019-04-22T21:35:54.945Z,9.43
2019-04-22T21:38:25.032Z,8.60
2019-04-22T21:40:45.600Z,8.00
2019-04-22T21:43:42.180Z,11.50
2019-04-22T21:46:32.393Z,9.33
2019-04-22T21:49:10.849Z,9.27
2019-04-22T21:51:48.100Z,8.53
2019-04-22T21:54:15.578Z,9.73
2019-04-22T21:57:53.827Z,8.07
2019-04-22T22:00:17.303Z,7.83
2019-04-22T22:03:02.212Z,9.40
2019-04-22T22:05:30.162Z,9.77
2019-04-22T22:08:30.176Z,8.23
2019-04-22T22:10:51.161Z,9.17
2019-04-22T22:14:07.690Z,7.30
2019-04-22T22:16:29.420Z,8.50
2019-04-22T22:19:25.499Z,9.50
2019-04-22T22:22:25.418Z,9.43
2019-04-22T22:24:39.963Z,10.60
2019-04-22T22:27:09.346Z,8.00
2019-04-22T22:29:57.013Z,10.50
2019-04-22T22:32:40.502Z,8.07
2019-04-22T22:35:26.685Z,9.00
2019-04-22T22:37:51.708Z,8.60
2019-04-22T22:40:30.605Z,7.77
2019-04-22T22:43:11.689Z,8.00
2019-04-22T22:46:08.989Z,11.53
2019-04-22T22:49:05.022Z,7.80
2019-04-22T22:51:40.350Z,8.20
2019-04-22T22:54:33.102Z,10.70
2019-04-22T22:57:25.162Z,8.43
2019-04-22T22:59:57.803Z,8.80
2019-04-22T23:02:36.816Z,8.87
2019-04-22T23:05:05.562Z,9.70
2019-04-22T23:07:40.957Z,8.10
2019-04-22T23:10:33.944Z,8.70
2019-04-22T23:13:14.687Z,8.43
2019-04-22T23:15:37.138Z,9.00
2019-04-22T23:17:54.007Z,8.30
2019-04-22T23:20:48.332Z,8.93
2019-04-22T23:23:51.344Z,9.60
2019-04-22T23:26:35.760Z,9.83
2019-04-22T23:29:16.085Z,8.37
2019-04-22T23:32:00.583Z,9.70
2019-04-22T23:37:23.225Z,9.77
2019-04-22T23:40:32.568Z,9.67
2019-04-22T23:46:29.047Z,14.43
2019-04-22T23:52:14.690Z,9.03
2019-04-22T23:54:58.523Z,9.20
2019-04-22T23:57:26.312Z,9.97
